Time;durP1;ratioP1;P1;durP2;ratioP2;P2;SDS_P1;SDS_P2;PMS_P1;PMS_P2;Temp;Humidity;BMP_temperature;BMP_pressure;BME280_temperature;BME280_humidity;BME280_pressure;Samples;Min_cycle;Max_cycle;Signal;HPM_P1;HPM_P2
2023/10/16 00:00:29;;;;;;;3.85;3.75;;;;;;;;;;6002338;29;20058;-84
2023/10/16 00:03:31;;;;;;;2.83;2.72;;;;;;;;;;5982170;29;20572;-84
2023/10/16 00:06:34;;;;;;;3.50;3.40;;;;;;;;;;5980051;29;20066;-84
2023/10/16 00:09:39;;;;;;;3.13;3.03;;;;;;;;;;5993136;29;20154;-85
2023/10/16 00:12:42;;;;;;;3.85;3.67;;;;;;;;;;5997944;29;20548;-85
2023/10/16 00:15:49;;;;;;;3.60;3.50;;;;;;;;;;5991665;29;20191;-85
2023/10/16 00:18:53;;;;;;;5.15;3.38;;;;;;;;;;5992443;29;20085;-85
2023/10/16 00:21:57;;;;;;;2.85;2.75;;;;;;;;;;5992613;29;20042;-85
2023/10/16 00:24:59;;;;;;;3.63;3.53;;;;;;;;;;5990597;29;20103;-85
2023/10/16 00:28:01;;;;;;;3.35;3.25;;;;;;;;;;5993404;29;20191;-85
2023/10/16 00:31:08;;;;;;;3.20;3.10;;;;;;;;;;5985613;29;20522;-85
2023/10/16 00:34:09;;;;;;;3.25;3.15;;;;;;;;;;6004330;29;20050;-85
2023/10/16 00:37:11;;;;;;;3.08;2.97;;;;;;;;;;5984605;29;20050;-85
2023/10/16 00:40:13;;;;;;;3.42;3.33;;;;;;;;;;5988495;29;20038;-84
2023/10/16 00:43:19;;;;;;;3.35;3.25;;;;;;;;;;5985960;29;20114;-85
2023/10/16 00:46:37;;;;;;;3.95;3.65;;;;;;;;;;5990819;29;20103;-85
2023/10/16 00:49:39;;;;;;;3.03;2.92;;;;;;;;;;5994840;29;20084;-85
2023/10/16 00:52:42;;;;;;;4.03;3.72;;;;;;;;;;5980495;29;20286;-85
2023/10/16 00:55:44;;;;;;;4.93;3.75;;;;;;;;;;5992396;29;20437;-84
2023/10/16 00:58:47;;;;;;;6.75;4.82;;;;;;;;;;5979693;29;20050;-84
2023/10/16 01:01:51;;;;;;;2.90;2.80;;;;;;;;;;5983235;29;20078;-85
2023/10/16 01:04:53;;;;;;;3.28;3.17;;;;;;;;;;5965156;29;20058;-84
2023/10/16 01:07:55;;;;;;;3.17;3.08;;;;;;;;;;5997119;29;20130;-84
2023/10/16 01:10:59;;;;;;;3.25;3.15;;;;;;;;;;5990432;29;20042;-84
2023/10/16 01:14:03;;;;;;;3.40;3.30;;;;;;;;;;5978348;29;20054;-84
2023/10/16 01:17:12;;;;;;;3.53;3.42;;;;;;;;;;5981031;29;20050;-84
2023/10/16 01:20:18;;;;;;;3.60;3.50;;;;;;;;;;5980507;29;20530;-84
2023/10/16 01:23:20;;;;;;;3.00;2.90;;;;;;;;;;5985691;29;20484;-85
2023/10/16 01:26:24;;;;;;;3.28;3.17;;;;;;;;;;5979156;29;20063;-85
2023/10/16 01:29:26;;;;;;;3.80;3.60;;;;;;;;;;5984439;29;20075;-84
2023/10/16 01:32:28;;;;;;;3.92;3.63;;;;;;;;;;5983292;29;20058;-84
2023/10/16 01:35:30;;;;;;;3.95;3.50;;;;;;;;;;5985610;29;20038;-84
2023/10/16 01:38:31;;;;;;;3.65;3.55;;;;;;;;;;5982351;29;20074;-84
2023/10/16 01:41:34;;;;;;;2.75;2.67;;;;;;;;;;5979917;29;20428;-84
2023/10/16 01:44:35;;;;;;;3.72;3.58;;;;;;;;;;5979610;29;20058;-84
2023/10/16 01:47:37;;;;;;;4.60;4.28;;;;;;;;;;5980325;29;20526;-84
2023/10/16 01:50:39;;;;;;;3.45;3.35;;;;;;;;;;5980327;29;20046;-85
2023/10/16 01:53:42;;;;;;;3.10;3.00;;;;;;;;;;5980029;29;20054;-84
2023/10/16 01:56:44;;;;;;;3.17;3.08;;;;;;;;;;5989694;29;20050;-85
2023/10/16 01:59:51;;;;;;;2.85;2.72;;;;;;;;;;5984918;29;20049;-85
2023/10/16 02:02:53;;;;;;;12.35;3.38;;;;;;;;;;6000853;29;20552;-85
2023/10/16 02:05:55;;;;;;;3.60;3.40;;;;;;;;;;5986193;29;20544;-85
2023/10/16 02:08:59;;;;;;;3.22;3.13;;;;;;;;;;5991104;29;20148;-85
2023/10/16 02:12:01;;;;;;;2.88;2.78;;;;;;;;;;5980842;29;20058;-84
2023/10/16 02:15:06;;;;;;;4.28;4.07;;;;;;;;;;5986101;29;20133;-85
2023/10/16 02:18:09;;;;;;;3.13;3.03;;;;;;;;;;5982839;29;20045;-84
2023/10/16 02:21:11;;;;;;;5.18;4.72;;;;;;;;;;5998861;29;20141;-84
2023/10/16 02:24:16;;;;;;;3.05;2.95;;;;;;;;;;5979470;29;20061;-85
2023/10/16 02:27:18;;;;;;;3.67;3.33;;;;;;;;;;5980519;29;20046;-85
2023/10/16 02:33:26;;;;;;;4.03;3.72;;;;;;;;;;5991410;29;20124;-85
2023/10/16 02:36:29;;;;;;;6.55;6.35;;;;;;;;;;5963778;29;20112;-85
2023/10/16 02:39:41;;;;;;;3.45;3.35;;;;;;;;;;5988960;29;20715;-85
2023/10/16 02:42:50;;;;;;;3.67;3.58;;;;;;;;;;5987906;29;21454;-85
2023/10/16 02:45:53;;;;;;;4.15;4.03;;;;;;;;;;5982355;29;20637;-84
2023/10/16 02:48:55;;;;;;;3.67;3.58;;;;;;;;;;5968037;29;20145;-84
2023/10/16 02:51:57;;;;;;;3.53;3.33;;;;;;;;;;5988102;29;20046;-84
2023/10/16 02:55:00;;;;;;;3.00;2.90;;;;;;;;;;5978459;29;20061;-85
2023/10/16 02:58:08;;;;;;;3.60;3.50;;;;;;;;;;5962137;29;20051;-85
2023/10/16 03:01:22;;;;;;;4.22;4.13;;;;;;;;;;5977712;29;20045;-84
2023/10/16 03:04:26;;;;;;;3.47;3.38;;;;;;;;;;5978462;29;20383;-84
2023/10/16 03:07:28;;;;;;;3.78;3.63;;;;;;;;;;5991699;29;20050;-84
2023/10/16 03:10:30;;;;;;;3.38;3.28;;;;;;;;;;5983525;29;20054;-84
2023/10/16 03:13:59;;;;;;;2.90;2.80;;;;;;;;;;5987884;29;20114;-85
2023/10/16 03:16:58;;;;;;;3.60;3.38;;;;;;;;;;5979349;29;20061;-84
2023/10/16 03:20:01;;;;;;;3.03;2.92;;;;;;;;;;5986124;29;20061;-84
2023/10/16 03:23:12;;;;;;;3.40;3.30;;;;;;;;;;5988932;29;20345;-85
2023/10/16 03:26:31;;;;;;;3.40;3.30;;;;;;;;;;5987476;29;20355;-84
2023/10/16 03:29:33;;;;;;;3.08;2.97;;;;;;;;;;6000088;29;20538;-84
2023/10/16 03:32:35;;;;;;;3.67;3.47;;;;;;;;;;5991518;29;20127;-84
2023/10/16 03:35:41;;;;;;;2.97;2.88;;;;;;;;;;5982722;29;20408;-84
2023/10/16 03:38:43;;;;;;;3.22;3.13;;;;;;;;;;5990669;29;20042;-84
2023/10/16 03:41:48;;;;;;;3.13;3.03;;;;;;;;;;5989482;29;20516;-84
2023/10/16 03:44:50;;;;;;;3.22;3.13;;;;;;;;;;5997473;29;20061;-85
2023/10/16 03:48:08;;;;;;;3.10;3.00;;;;;;;;;;5991739;29;20695;-84
2023/10/16 03:51:11;;;;;;;3.05;2.95;;;;;;;;;;5995534;29;20129;-84
2023/10/16 03:54:14;;;;;;;3.53;3.42;;;;;;;;;;5978988;29;20050;-84
2023/10/16 03:57:20;;;;;;;2.97;2.88;;;;;;;;;;5989636;29;20065;-84
2023/10/16 04:00:26;;;;;;;2.70;2.65;;;;;;;;;;5984189;29;20408;-84
2023/10/16 04:03:36;;;;;;;3.10;3.00;;;;;;;;;;5984141;29;20077;-84
2023/10/16 04:06:39;;;;;;;3.55;3.35;;;;;;;;;;5993134;29;20053;-84
2023/10/16 04:09:49;;;;;;;3.10;3.00;;;;;;;;;;5994924;29;20039;-84
2023/10/16 04:12:51;;;;;;;2.42;2.42;;;;;;;;;;5995777;29;20053;-84
2023/10/16 04:22:16;;;;;;;3.13;3.03;;;;;;;;;;5986346;29;20182;-84
2023/10/16 04:25:19;;;;;;;2.55;2.55;;;;;;;;;;5987509;29;20058;-84
2023/10/16 04:28:29;;;;;;;3.05;2.95;;;;;;;;;;5998037;29;20053;-85
2023/10/16 04:34:52;;;;;;;2.80;2.72;;;;;;;;;;5987995;29;20047;-85
2023/10/16 04:37:55;;;;;;;7.45;3.30;;;;;;;;;;5989602;29;20561;-85
2023/10/16 04:48:07;;;;;;;3.10;3.00;;;;;;;;;;5983551;29;20084;-86
2023/10/16 04:51:27;;;;;;;3.63;3.53;;;;;;;;;;5979548;29;20046;-85
2023/10/16 04:55:02;;;;;;;3.75;3.65;;;;;;;;;;5976199;29;20058;-84
2023/10/16 05:01:33;;;;;;;3.08;2.97;;;;;;;;;;5981360;29;20474;-85
2023/10/16 05:08:30;;;;;;;3.25;3.15;;;;;;;;;;5984980;29;20085;-85
2023/10/16 05:18:10;;;;;;;3.47;3.35;;;;;;;;;;5980762;29;20757;-85
2023/10/16 05:21:51;;;;;;;3.42;3.33;;;;;;;;;;5990162;29;20604;-84
2023/10/16 06:14:48;;;;;;;3.75;3.65;;;;;;;;;;5983798;29;20087;-85
2023/10/16 06:17:51;;;;;;;3.00;2.90;;;;;;;;;;5981556;29;20050;-84
2023/10/16 06:20:54;;;;;;;3.22;3.10;;;;;;;;;;5990591;29;20058;-84
2023/10/16 06:23:55;;;;;;;3.20;3.10;;;;;;;;;;6002512;29;20056;-85
2023/10/16 06:26:57;;;;;;;2.75;2.65;;;;;;;;;;5990089;29;20053;-84
2023/10/16 06:30:05;;;;;;;3.53;3.42;;;;;;;;;;5996778;29;20042;-84
2023/10/16 06:33:07;;;;;;;3.22;3.13;;;;;;;;;;5992250;29;20045;-85
2023/10/16 06:36:10;;;;;;;3.28;3.17;;;;;;;;;;5983185;29;20046;-85
2023/10/16 06:39:28;;;;;;;3.03;2.92;;;;;;;;;;5996168;29;20476;-85
2023/10/16 06:42:30;;;;;;;10.70;3.25;;;;;;;;;;5994374;29;20054;-85
2023/10/16 06:45:54;;;;;;;3.03;2.92;;;;;;;;;;5991920;29;20046;-85
2023/10/16 06:48:57;;;;;;;3.00;2.90;;;;;;;;;;5991471;29;20050;-85
2023/10/16 06:51:59;;;;;;;3.13;3.03;;;;;;;;;;5984521;29;20183;-85
2023/10/16 06:55:00;;;;;;;3.50;3.40;;;;;;;;;;5994970;29;20061;-85
2023/10/16 06:58:04;;;;;;;3.03;2.92;;;;;;;;;;5987710;29;20421;-85
2023/10/16 07:01:12;;;;;;;3.40;3.30;;;;;;;;;;5995152;29;20748;-85
2023/10/16 07:04:14;;;;;;;3.08;2.97;;;;;;;;;;5993605;29;20065;-85
2023/10/16 07:07:16;;;;;;;3.28;3.17;;;;;;;;;;5997460;29;20054;-85
2023/10/16 07:10:23;;;;;;;3.22;3.13;;;;;;;;;;5989574;29;20046;-85
2023/10/16 07:13:31;;;;;;;3.63;3.53;;;;;;;;;;5994793;29;20141;-85
2023/10/16 07:16:33;;;;;;;3.50;3.40;;;;;;;;;;6006832;29;20065;-85
2023/10/16 07:19:35;;;;;;;4.65;2.67;;;;;;;;;;6007717;29;20655;-85
2023/10/16 07:22:37;;;;;;;2.30;2.30;;;;;;;;;;6005598;29;20062;-85
2023/10/16 07:25:54;;;;;;;2.88;2.78;;;;;;;;;;6004276;29;20053;-86
2023/10/16 07:28:58;;;;;;;3.53;3.42;;;;;;;;;;5998329;29;20057;-85
2023/10/16 07:32:01;;;;;;;7.07;3.97;;;;;;;;;;5994011;29;20128;-86
2023/10/16 07:35:03;;;;;;;3.10;3.00;;;;;;;;;;5987991;29;20057;-85
2023/10/16 07:38:05;;;;;;;3.42;3.28;;;;;;;;;;5990881;29;20042;-85
2023/10/16 07:41:13;;;;;;;6.32;3.67;;;;;;;;;;5992030;29;20700;-85
2023/10/16 07:44:15;;;;;;;2.75;2.70;;;;;;;;;;5993166;29;20529;-86
2023/10/16 07:47:18;;;;;;;3.35;3.25;;;;;;;;;;5994865;29;20174;-85
2023/10/16 07:50:19;;;;;;;3.22;3.13;;;;;;;;;;6004538;29;20084;-85
2023/10/16 07:53:21;;;;;;;2.88;2.78;;;;;;;;;;5998477;29;20058;-85
2023/10/16 07:56:26;;;;;;;3.75;3.65;;;;;;;;;;5998744;29;20058;-85
2023/10/16 07:59:35;;;;;;;3.40;3.30;;;;;;;;;;5989717;29;20451;-86
2023/10/16 08:02:44;;;;;;;3.92;3.70;;;;;;;;;;5986046;29;20045;-85
2023/10/16 08:05:47;;;;;;;3.20;3.10;;;;;;;;;;5990426;29;20501;-85
2023/10/16 08:08:48;;;;;;;6.60;3.55;;;;;;;;;;5988153;29;20487;-85
2023/10/16 08:11:57;;;;;;;3.65;3.55;;;;;;;;;;5984601;29;20077;-85
2023/10/16 08:14:59;;;;;;;3.70;3.60;;;;;;;;;;5992898;29;20069;-85
2023/10/16 08:18:01;;;;;;;3.53;3.42;;;;;;;;;;5991797;29;20057;-85
2023/10/16 08:21:09;;;;;;;4.60;4.40;;;;;;;;;;5984605;29;20046;-85
2023/10/16 08:24:13;;;;;;;3.78;3.67;;;;;;;;;;5991638;29;20050;-85
2023/10/16 08:30:54;;;;;;;4.20;3.92;;;;;;;;;;5984394;29;20083;-85
2023/10/16 08:33:56;;;;;;;3.53;3.42;;;;;;;;;;5981241;29;20050;-85
2023/10/16 08:36:58;;;;;;;4.63;4.32;;;;;;;;;;5986011;29;20421;-85
2023/10/16 08:40:00;;;;;;;4.30;3.83;;;;;;;;;;5989622;29;20501;-85
2023/10/16 08:43:09;;;;;;;3.35;3.25;;;;;;;;;;5981492;29;20428;-85
2023/10/16 08:46:18;;;;;;;3.58;3.47;;;;;;;;;;5982292;29;20054;-85
2023/10/16 08:49:23;;;;;;;3.65;3.55;;;;;;;;;;5987116;29;20046;-85
2023/10/16 08:52:34;;;;;;;4.10;4.00;;;;;;;;;;5985092;29;20038;-85
2023/10/16 08:55:36;;;;;;;4.25;4.15;;;;;;;;;;5983294;29;20061;-85
2023/10/16 08:58:44;;;;;;;6.47;3.90;;;;;;;;;;5984894;29;20042;-85
2023/10/16 09:01:48;;;;;;;2.80;2.70;;;;;;;;;;5994739;29;20606;-85
2023/10/16 09:04:52;;;;;;;4.10;3.80;;;;;;;;;;5982027;29;20050;-85
2023/10/16 09:07:54;;;;;;;3.58;3.47;;;;;;;;;;5983767;29;20058;-85
2023/10/16 09:10:56;;;;;;;4.22;4.13;;;;;;;;;;5989374;29;20058;-85
2023/10/16 09:13:59;;;;;;;4.15;4.05;;;;;;;;;;5981405;29;20107;-85
2023/10/16 09:17:02;;;;;;;4.05;3.85;;;;;;;;;;5986035;29;20050;-85
2023/10/16 09:20:14;;;;;;;4.30;3.40;;;;;;;;;;5989792;29;20048;-85
2023/10/16 09:23:15;;;;;;;;;;;;;;;;;;5984308;29;20054;-85
2023/10/16 09:26:17;;;;;;;3.88;3.78;;;;;;;;;;5988104;29;19928;-87
2023/10/16 09:29:23;;;;;;;3.75;3.65;;;;;;;;;;5982186;29;20386;-87
2023/10/16 09:32:26;;;;;;;4.03;3.72;;;;;;;;;;5983029;29;20195;-86
2023/10/16 09:35:30;;;;;;;3.97;3.78;;;;;;;;;;5989913;29;20057;-85
2023/10/16 09:38:34;;;;;;;4.07;3.88;;;;;;;;;;5994296;29;20057;-85
2023/10/16 09:41:40;;;;;;;3.83;3.72;;;;;;;;;;5984889;29;20054;-85
2023/10/16 09:44:56;;;;;;;3.10;2.85;;;;;;;;;;5987854;29;20038;-85
2023/10/16 09:48:07;;;;;;;3.78;3.67;;;;;;;;;;5991888;29;20050;-85
2023/10/16 09:51:09;;;;;;;3.72;3.63;;;;;;;;;;5989423;29;20121;-86
2023/10/16 09:54:21;;;;;;;3.95;3.75;;;;;;;;;;5980823;29;20050;-85
2023/10/16 09:57:26;;;;;;;3.33;3.22;;;;;;;;;;5988072;29;20085;-86
2023/10/16 10:03:30;;;;;;;3.28;3.10;;;;;;;;;;5988320;29;20093;-85
2023/10/16 10:06:35;;;;;;;3.55;3.45;;;;;;;;;;5994205;29;20057;-85
2023/10/16 10:09:41;;;;;;;3.50;3.30;;;;;;;;;;5979871;29;20069;-86
2023/10/16 10:12:47;;;;;;;3.72;3.63;;;;;;;;;;5996693;29;20504;-85
2023/10/16 10:15:51;;;;;;;3.38;3.28;;;;;;;;;;5988071;29;20046;-85
2023/10/16 10:19:01;;;;;;;3.63;3.45;;;;;;;;;;5983245;29;20128;-85
2023/10/16 10:22:06;;;;;;;4.15;3.95;;;;;;;;;;5990395;29;20078;-86
2023/10/16 10:25:22;;;;;;;3.65;3.55;;;;;;;;;;5982507;29;20456;-86
2023/10/16 10:28:28;;;;;;;3.17;3.08;;;;;;;;;;5989618;29;20062;-85
2023/10/16 10:31:31;;;;;;;3.90;3.80;;;;;;;;;;5996419;29;20045;-86
2023/10/16 10:34:33;;;;;;;3.45;3.35;;;;;;;;;;5988793;29;20497;-85
2023/10/16 10:37:44;;;;;;;3.53;3.42;;;;;;;;;;5988013;29;20056;-88
2023/10/16 10:41:06;;;;;;;2.95;2.85;;;;;;;;;;5998942;29;20050;-92
2023/10/16 10:44:14;;;;;;;3.28;3.17;;;;;;;;;;5994395;29;20509;-90
2023/10/16 10:47:24;;;;;;;3.78;3.67;;;;;;;;;;5985340;29;20042;-90
2023/10/16 10:50:27;;;;;;;4.53;3.53;;;;;;;;;;5984912;29;20142;-89
2023/10/16 10:53:28;;;;;;;3.30;3.20;;;;;;;;;;5992579;29;20050;-90
2023/10/16 10:56:50;;;;;;;3.42;3.30;;;;;;;;;;5986628;29;20042;-89
2023/10/16 11:03:22;;;;;;;4.28;4.07;;;;;;;;;;5988680;29;20064;-88
2023/10/16 11:06:49;;;;;;;3.35;3.25;;;;;;;;;;5981129;29;20053;-88
2023/10/16 11:09:52;;;;;;;3.00;2.90;;;;;;;;;;5977935;29;20050;-87
2023/10/16 11:13:03;;;;;;;3.25;3.15;;;;;;;;;;5985679;29;20047;-89
2023/10/16 11:16:08;;;;;;;3.20;3.10;;;;;;;;;;5974314;29;20054;-88
2023/10/16 11:19:10;;;;;;;3.00;2.90;;;;;;;;;;5982230;29;20042;-88
2023/10/16 11:22:16;;;;;;;3.10;3.00;;;;;;;;;;5990400;29;20523;-87
2023/10/16 11:25:20;;;;;;;4.25;4.07;;;;;;;;;;5985433;29;20045;-87
2023/10/16 11:28:23;;;;;;;4.20;3.65;;;;;;;;;;5978205;29;20424;-86
2023/10/16 11:31:26;;;;;;;3.13;3.03;;;;;;;;;;5989450;29;20494;-86
2023/10/16 11:34:29;;;;;;;3.33;3.22;;;;;;;;;;5983480;29;20050;-86
2023/10/16 11:37:34;;;;;;;3.33;3.22;;;;;;;;;;5983583;29;20117;-86
2023/10/16 11:40:42;;;;;;;3.53;3.42;;;;;;;;;;5987721;29;20057;-88
2023/10/16 11:43:51;;;;;;;3.33;3.22;;;;;;;;;;5978855;29;20057;-87
2023/10/16 11:46:53;;;;;;;3.10;3.00;;;;;;;;;;5985792;29;20058;-86
2023/10/16 11:49:54;;;;;;;3.55;3.45;;;;;;;;;;5982945;29;20182;-86
2023/10/16 11:52:57;;;;;;;2.97;2.88;;;;;;;;;;5989405;29;20064;-87
2023/10/16 11:55:58;;;;;;;2.90;2.80;;;;;;;;;;5988120;29;20053;-94
2023/10/16 11:59:01;;;;;;;3.95;3.85;;;;;;;;;;5986929;29;20062;-94
2023/10/16 12:02:18;;;;;;;4.25;4.15;;;;;;;;;;5989813;29;20046;-94
2023/10/16 12:05:19;;;;;;;3.67;3.58;;;;;;;;;;5990200;29;20556;-96
2023/10/16 12:08:21;;;;;;;3.08;2.97;;;;;;;;;;5989790;29;20460;-96
2023/10/16 12:11:23;;;;;;;4.72;4.43;;;;;;;;;;5982603;29;20058;-96
2023/10/16 12:14:25;;;;;;;3.45;3.35;;;;;;;;;;5986097;29;20413;-95
2023/10/16 12:17:28;;;;;;;3.70;3.58;;;;;;;;;;5980392;29;20076;-95
2023/10/16 12:20:30;;;;;;;3.13;3.03;;;;;;;;;;5979590;29;20121;-94
2023/10/16 12:23:38;;;;;;;3.35;3.25;;;;;;;;;;5993200;29;21292;-93
2023/10/16 12:26:40;;;;;;;3.75;3.65;;;;;;;;;;5986904;29;20471;-92
2023/10/16 12:29:44;;;;;;;3.45;3.35;;;;;;;;;;5986527;29;20072;-94
2023/10/16 12:32:46;;;;;;;3.33;3.22;;;;;;;;;;5991141;29;20066;-93
2023/10/16 12:35:48;;;;;;;3.22;3.13;;;;;;;;;;5986424;29;20049;-92
2023/10/16 12:38:53;;;;;;;3.08;2.97;;;;;;;;;;5964333;29;20058;-92
2023/10/16 12:41:55;;;;;;;3.20;3.10;;;;;;;;;;5993778;29;20187;-92
2023/10/16 12:44:57;;;;;;;3.20;3.10;;;;;;;;;;5991809;29;20054;-91
2023/10/16 12:47:59;;;;;;;3.63;3.53;;;;;;;;;;5985842;29;20071;-91
2023/10/16 12:51:07;;;;;;;3.55;3.45;;;;;;;;;;5979852;29;20098;-90
2023/10/16 12:54:12;;;;;;;3.65;3.55;;;;;;;;;;5985370;29;20057;-90
2023/10/16 12:57:18;;;;;;;4.32;4.07;;;;;;;;;;5995170;29;20054;-90
2023/10/16 13:00:21;;;;;;;3.60;3.50;;;;;;;;;;5986742;29;20238;-89
2023/10/16 13:03:23;;;;;;;3.38;3.28;;;;;;;;;;5989003;29;20046;-89
2023/10/16 13:06:31;;;;;;;3.28;3.17;;;;;;;;;;5988721;29;20046;-89
2023/10/16 13:09:33;;;;;;;3.38;3.28;;;;;;;;;;5983840;29;20051;-89
2023/10/16 13:12:36;;;;;;;2.90;2.80;;;;;;;;;;5991442;29;20062;-90
2023/10/16 13:15:38;;;;;;;3.60;3.50;;;;;;;;;;5979908;29;20053;-89
2023/10/16 13:18:41;;;;;;;3.13;3.03;;;;;;;;;;5986199;29;20046;-89
2023/10/16 13:21:43;;;;;;;3.45;3.35;;;;;;;;;;5984690;29;20518;-88
2023/10/16 13:24:47;;;;;;;3.13;3.03;;;;;;;;;;5976972;29;20141;-89
2023/10/16 13:27:51;;;;;;;3.40;3.30;;;;;;;;;;5992862;29;20092;-89
2023/10/16 13:30:53;;;;;;;7.88;3.65;;;;;;;;;;5991446;29;20102;-88
2023/10/16 13:34:02;;;;;;;3.60;3.38;;;;;;;;;;5989511;29;20038;-88
2023/10/16 13:37:14;;;;;;;3.97;3.78;;;;;;;;;;5984380;29;20593;-88
2023/10/16 13:40:22;;;;;;;3.47;3.38;;;;;;;;;;5984464;29;20046;-88
2023/10/16 13:43:24;;;;;;;3.40;3.30;;;;;;;;;;5994391;29;20424;-88
2023/10/16 13:46:26;;;;;;;4.57;4.22;;;;;;;;;;5988288;29;20496;-88
2023/10/16 13:49:28;;;;;;;6.00;5.47;;;;;;;;;;5977753;29;20054;-88
2023/10/16 13:52:30;;;;;;;4.07;3.97;;;;;;;;;;5987543;29;20042;-88
2023/10/16 13:55:32;;;;;;;3.80;3.70;;;;;;;;;;5998140;29;20061;-88
2023/10/16 13:58:35;;;;;;;3.20;3.10;;;;;;;;;;5988190;29;20062;-88
2023/10/16 14:01:49;;;;;;;3.28;3.17;;;;;;;;;;5983082;29;20408;-87
2023/10/16 14:04:52;;;;;;;3.20;3.10;;;;;;;;;;5977533;29;20057;-87
2023/10/16 14:07:54;;;;;;;2.90;2.80;;;;;;;;;;5993819;29;20077;-87
2023/10/16 14:11:03;;;;;;;3.28;3.17;;;;;;;;;;5983511;29;20058;-87
2023/10/16 14:14:10;;;;;;;3.40;3.30;;;;;;;;;;5982465;29;20054;-87
2023/10/16 14:17:21;;;;;;;3.13;3.03;;;;;;;;;;5982978;29;20413;-87
2023/10/16 14:20:34;;;;;;;3.35;3.25;;;;;;;;;;5982018;29;20081;-87
2023/10/16 14:23:38;;;;;;;3.47;3.38;;;;;;;;;;5996961;29;20394;-87
2023/10/16 14:26:40;;;;;;;4.22;3.92;;;;;;;;;;5994242;29;20042;-87
2023/10/16 14:29:45;;;;;;;6.78;3.10;;;;;;;;;;5986597;29;20055;-87
2023/10/16 14:32:48;;;;;;;6.93;3.50;;;;;;;;;;5978157;29;20145;-87
2023/10/16 14:35:50;;;;;;;2.92;2.83;;;;;;;;;;5981710;29;20057;-87
2023/10/16 14:38:54;;;;;;;2.95;2.85;;;;;;;;;;5988784;29;20050;-86
2023/10/16 14:41:57;;;;;;;3.03;2.92;;;;;;;;;;5978467;29;20427;-88
2023/10/16 14:44:59;;;;;;;3.33;3.15;;;;;;;;;;5977873;29;20054;-88
2023/10/16 14:48:03;;;;;;;3.95;3.75;;;;;;;;;;5986002;29;20050;-88
2023/10/16 14:51:05;;;;;;;4.20;4.10;;;;;;;;;;5981073;29;20063;-89
2023/10/16 14:54:07;;;;;;;3.53;3.42;;;;;;;;;;5987338;29;20050;-89
2023/10/16 14:57:09;;;;;;;3.00;2.90;;;;;;;;;;5982909;29;20041;-89
2023/10/16 15:00:13;;;;;;;3.45;3.35;;;;;;;;;;5982361;29;20039;-90
2023/10/16 15:03:14;;;;;;;3.20;3.10;;;;;;;;;;5986583;29;20211;-89
2023/10/16 15:06:16;;;;;;;3.40;3.30;;;;;;;;;;5983710;29;20050;-89
2023/10/16 15:09:18;;;;;;;3.42;3.33;;;;;;;;;;5973481;29;20057;-89
2023/10/16 15:12:20;;;;;;;3.05;2.92;;;;;;;;;;5984085;29;20163;-88
2023/10/16 15:15:21;;;;;;;4.13;3.92;;;;;;;;;;5977769;29;20058;-88
2023/10/16 15:18:23;;;;;;;3.60;3.50;;;;;;;;;;5980905;29;20094;-88
2023/10/16 15:21:25;;;;;;;2.72;2.67;;;;;;;;;;5998470;29;20605;-88
2023/10/16 15:24:27;;;;;;;3.47;3.38;;;;;;;;;;5983501;29;20054;-88
2023/10/16 15:27:30;;;;;;;3.60;3.50;;;;;;;;;;5991326;29;20065;-87
2023/10/16 15:30:33;;;;;;;3.67;3.40;;;;;;;;;;5981639;29;20047;-88
2023/10/16 15:33:35;;;;;;;3.80;3.60;;;;;;;;;;5995830;29;20141;-88
2023/10/16 15:36:37;;;;;;;3.40;3.30;;;;;;;;;;5992057;29;20042;-88
2023/10/16 15:39:38;;;;;;;3.58;3.47;;;;;;;;;;5995927;29;20090;-88
2023/10/16 15:42:40;;;;;;;4.25;3.58;;;;;;;;;;5994186;29;20046;-88
2023/10/16 15:45:42;;;;;;;3.30;3.20;;;;;;;;;;5986695;29;20058;-88
2023/10/16 15:48:44;;;;;;;3.15;3.05;;;;;;;;;;5998220;29;20622;-87
2023/10/16 15:51:45;;;;;;;5.05;4.63;;;;;;;;;;5986591;29;20050;-88
2023/10/16 15:54:47;;;;;;;3.47;3.38;;;;;;;;;;5990840;29;20046;-88
2023/10/16 15:57:49;;;;;;;3.78;3.47;;;;;;;;;;5985398;29;20058;-88
2023/10/16 16:00:54;;;;;;;4.35;4.15;;;;;;;;;;5979912;29;20043;-88
2023/10/16 16:03:58;;;;;;;3.70;3.60;;;;;;;;;;5982982;29;20034;-88
2023/10/16 16:07:07;;;;;;;3.78;3.67;;;;;;;;;;5984282;29;20042;-88
2023/10/16 16:10:10;;;;;;;3.65;3.55;;;;;;;;;;5997723;29;20610;-88
2023/10/16 16:13:12;;;;;;;3.90;3.80;;;;;;;;;;5989817;29;20038;-89
2023/10/16 16:16:15;;;;;;;6.60;4.50;;;;;;;;;;5982816;29;20090;-88
2023/10/16 16:19:19;;;;;;;8.57;4.93;;;;;;;;;;5991611;29;20243;-88
2023/10/16 16:22:21;;;;;;;3.35;3.25;;;;;;;;;;5999068;29;20050;-88
2023/10/16 16:25:26;;;;;;;3.20;3.10;;;;;;;;;;5985896;29;20049;-88
2023/10/16 16:28:27;;;;;;;3.60;3.50;;;;;;;;;;5986117;29;20050;-88
2023/10/16 16:31:29;;;;;;;3.45;3.35;;;;;;;;;;5981497;29;20580;-88
2023/10/16 16:34:31;;;;;;;2.75;2.67;;;;;;;;;;5984693;29;20612;-88
2023/10/16 16:37:33;;;;;;;3.40;3.30;;;;;;;;;;5984280;29;20520;-88
2023/10/16 16:40:36;;;;;;;4.03;3.83;;;;;;;;;;5981720;29;20126;-88
2023/10/16 16:43:38;;;;;;;3.20;3.00;;;;;;;;;;5991581;29;20096;-88
2023/10/16 16:46:41;;;;;;;3.15;3.05;;;;;;;;;;5994756;29;20405;-88
2023/10/16 16:49:43;;;;;;;3.00;2.90;;;;;;;;;;5982160;29;20052;-88
2023/10/16 16:52:45;;;;;;;4.25;4.10;;;;;;;;;;5994677;29;20417;-88
2023/10/16 16:55:46;;;;;;;5.65;5.35;;;;;;;;;;6002218;29;20458;-88
2023/10/16 16:58:49;;;;;;;4.03;3.83;;;;;;;;;;6001401;29;20057;-88
2023/10/16 17:01:53;;;;;;;3.30;3.20;;;;;;;;;;6002301;29;20054;-87
2023/10/16 17:04:54;;;;;;;3.63;3.53;;;;;;;;;;5991300;29;20112;-88
2023/10/16 17:07:56;;;;;;;2.95;2.85;;;;;;;;;;5985817;29;20038;-88
2023/10/16 17:10:59;;;;;;;5.72;3.53;;;;;;;;;;5995726;29;20520;-88
2023/10/16 17:14:01;;;;;;;4.40;4.13;;;;;;;;;;5995264;29;20046;-88
2023/10/16 17:17:04;;;;;;;3.30;3.20;;;;;;;;;;6000219;29;20102;-87
2023/10/16 17:20:09;;;;;;;3.97;3.88;;;;;;;;;;5997176;29;20477;-87
2023/10/16 17:23:12;;;;;;;3.25;3.15;;;;;;;;;;5993637;29;20500;-87
2023/10/16 17:26:14;;;;;;;3.95;3.75;;;;;;;;;;5988428;29;20071;-87
2023/10/16 17:29:17;;;;;;;4.18;3.97;;;;;;;;;;5997598;29;20054;-87
2023/10/16 17:32:19;;;;;;;3.75;3.65;;;;;;;;;;5999193;29;20042;-87
2023/10/16 17:35:27;;;;;;;3.78;3.67;;;;;;;;;;5980022;29;20050;-87
2023/10/16 17:38:29;;;;;;;4.07;3.88;;;;;;;;;;5988869;29;20077;-87
2023/10/16 17:41:33;;;;;;;3.95;3.85;;;;;;;;;;5986981;29;20047;-87
2023/10/16 17:44:37;;;;;;;4.35;4.15;;;;;;;;;;5986911;29;20051;-87
2023/10/16 17:47:39;;;;;;;4.63;4.43;;;;;;;;;;5988225;29;20606;-87
2023/10/16 17:50:43;;;;;;;3.88;3.78;;;;;;;;;;5983257;29;20057;-87
2023/10/16 17:53:45;;;;;;;4.43;4.22;;;;;;;;;;5990988;29;20505;-87
2023/10/16 17:56:46;;;;;;;4.38;4.07;;;;;;;;;;5982158;29;20058;-88
2023/10/16 17:59:48;;;;;;;3.55;3.45;;;;;;;;;;5992717;29;20050;-87
2023/10/16 18:02:50;;;;;;;4.63;4.43;;;;;;;;;;5991865;29;20046;-88
2023/10/16 18:05:52;;;;;;;3.72;3.63;;;;;;;;;;5996014;29;20445;-87
2023/10/16 18:08:58;;;;;;;4.25;4.05;;;;;;;;;;5987901;29;20050;-88
2023/10/16 18:12:03;;;;;;;4.75;4.55;;;;;;;;;;5985696;29;20047;-88
2023/10/16 18:15:08;;;;;;;4.47;4.38;;;;;;;;;;5980398;29;20486;-87
2023/10/16 18:18:11;;;;;;;3.58;3.47;;;;;;;;;;5991861;29;20042;-87
2023/10/16 18:21:13;;;;;;;3.90;3.70;;;;;;;;;;5979434;29;20484;-87
2023/10/16 18:24:15;;;;;;;3.63;3.47;;;;;;;;;;5987262;29;20118;-87
2023/10/16 18:27:20;;;;;;;3.50;3.40;;;;;;;;;;5986957;29;20147;-87
2023/10/16 18:30:22;;;;;;;6.50;4.57;;;;;;;;;;5982079;29;20046;-87
2023/10/16 18:33:24;;;;;;;4.85;4.40;;;;;;;;;;5981123;29;20050;-86
2023/10/16 18:36:28;;;;;;;4.85;4.45;;;;;;;;;;5988377;29;20053;-87
2023/10/16 18:39:32;;;;;;;3.78;3.67;;;;;;;;;;5993474;29;20424;-87
2023/10/16 18:42:35;;;;;;;4.07;3.85;;;;;;;;;;5987063;29;20054;-87
2023/10/16 18:45:38;;;;;;;3.70;3.60;;;;;;;;;;5990704;29;20053;-87
2023/10/16 18:48:43;;;;;;;3.22;3.13;;;;;;;;;;5985053;29;20042;-87
2023/10/16 18:51:46;;;;;;;3.63;3.53;;;;;;;;;;5982012;29;20519;-87
2023/10/16 18:54:49;;;;;;;3.80;3.60;;;;;;;;;;5997237;29;20050;-87
2023/10/16 18:57:51;;;;;;;3.38;3.28;;;;;;;;;;5990751;29;20520;-87
2023/10/16 19:01:07;;;;;;;4.20;4.07;;;;;;;;;;5989951;29;20062;-87
2023/10/16 19:04:10;;;;;;;4.07;3.97;;;;;;;;;;5990661;29;20085;-87
2023/10/16 19:07:13;;;;;;;3.67;3.58;;;;;;;;;;5987810;29;20519;-87
2023/10/16 19:10:15;;;;;;;5.13;4.93;;;;;;;;;;5997448;29;20049;-87
2023/10/16 19:13:17;;;;;;;4.50;4.38;;;;;;;;;;5987949;29;20062;-87
2023/10/16 19:16:18;;;;;;;4.07;3.95;;;;;;;;;;5992681;29;20106;-88
2023/10/16 19:19:21;;;;;;;4.50;4.30;;;;;;;;;;6000327;29;20054;-87
2023/10/16 19:22:22;;;;;;;4.25;4.05;;;;;;;;;;5999741;29;20091;-88
2023/10/16 19:25:25;;;;;;;4.32;4.10;;;;;;;;;;5993321;29;20057;-88
2023/10/16 19:28:28;;;;;;;4.20;4.10;;;;;;;;;;5999731;29;20054;-88
2023/10/16 19:31:30;;;;;;;4.40;4.20;;;;;;;;;;5999800;29;20046;-88
2023/10/16 19:34:32;;;;;;;3.78;3.63;;;;;;;;;;5992927;29;20069;-88
2023/10/16 19:37:34;;;;;;;4.78;4.57;;;;;;;;;;5991331;29;20053;-87
2023/10/16 19:40:37;;;;;;;4.40;4.20;;;;;;;;;;5987568;29;20050;-88
2023/10/16 19:43:38;;;;;;;4.45;4.25;;;;;;;;;;5998070;29;20053;-87
2023/10/16 19:46:41;;;;;;;3.13;3.03;;;;;;;;;;5990535;29;20056;-88
2023/10/16 19:49:43;;;;;;;3.40;3.30;;;;;;;;;;5991356;29;20038;-88
2023/10/16 19:52:46;;;;;;;4.28;4.07;;;;;;;;;;5988706;29;20126;-87
2023/10/16 19:55:50;;;;;;;3.78;3.67;;;;;;;;;;5995350;29;20046;-88
2023/10/16 19:58:53;;;;;;;3.72;3.50;;;;;;;;;;5993488;29;20528;-88